sensor_id;sensor_type;location;lat;lon;timestamp;P1;durP1;ratioP1;P2;durP2;ratioP2
26303;SDS011;70693;48.680;8.890;2023-09-12T00:00:57;5.55;;;4.03;;
26303;SDS011;70693;48.680;8.890;2023-09-12T00:03:23;6.40;;;4.05;;
26303;SDS011;70693;48.680;8.890;2023-09-12T00:05:52;6.15;;;4.03;;
26303;SDS011;70693;48.680;8.890;2023-09-12T00:08:19;6.13;;;3.92;;
26303;SDS011;70693;48.680;8.890;2023-09-12T00:10:44;8.00;;;3.88;;
26303;SDS011;70693;48.680;8.890;2023-09-12T00:13:10;4.78;;;4.00;;
26303;SDS011;70693;48.680;8.890;2023-09-12T00:15:36;6.53;;;3.97;;
26303;SDS011;70693;48.680;8.890;2023-09-12T00:18:01;7.43;;;4.03;;
26303;SDS011;70693;48.680;8.890;2023-09-12T00:20:28;4.75;;;3.38;;
26303;SDS011;70693;48.680;8.890;2023-09-12T00:22:53;5.68;;;3.90;;
26303;SDS011;70693;48.680;8.890;2023-09-12T00:25:20;6.32;;;4.10;;
26303;SDS011;70693;48.680;8.890;2023-09-12T00:27:46;7.47;;;3.75;;
26303;SDS011;70693;48.680;8.890;2023-09-12T00:30:14;8.23;;;4.00;;
26303;SDS011;70693;48.680;8.890;2023-09-12T00:32:40;6.13;;;3.65;;
26303;SDS011;70693;48.680;8.890;2023-09-12T00:35:06;5.97;;;3.97;;
26303;SDS011;70693;48.680;8.890;2023-09-12T00:37:32;9.40;;;4.18;;
26303;SDS011;70693;48.680;8.890;2023-09-12T00:39:57;6.63;;;3.90;;
26303;SDS011;70693;48.680;8.890;2023-09-12T00:42:26;7.80;;;4.10;;
26303;SDS011;70693;48.680;8.890;2023-09-12T00:44:52;7.40;;;3.95;;
26303;SDS011;70693;48.680;8.890;2023-09-12T00:47:17;6.75;;;4.20;;
26303;SDS011;70693;48.680;8.890;2023-09-12T00:49:45;6.03;;;3.92;;
26303;SDS011;70693;48.680;8.890;2023-09-12T00:52:12;6.07;;;3.70;;
26303;SDS011;70693;48.680;8.890;2023-09-12T00:54:39;12.75;;;4.30;;
26303;SDS011;70693;48.680;8.890;2023-09-12T00:57:05;5.15;;;3.40;;
26303;SDS011;70693;48.680;8.890;2023-09-12T00:59:31;6.82;;;4.07;;
26303;SDS011;70693;48.680;8.890;2023-09-12T01:01:57;6.53;;;4.18;;
26303;SDS011;70693;48.680;8.890;2023-09-12T01:04:24;6.03;;;3.80;;
26303;SDS011;70693;48.680;8.890;2023-09-12T01:06:50;5.68;;;4.03;;
26303;SDS011;70693;48.680;8.890;2023-09-12T01:09:17;4.65;;;3.83;;
26303;SDS011;70693;48.680;8.890;2023-09-12T01:11:42;4.88;;;3.83;;
26303;SDS011;70693;48.680;8.890;2023-09-12T01:14:09;6.07;;;3.95;;
26303;SDS011;70693;48.680;8.890;2023-09-12T01:16:34;7.03;;;3.90;;
26303;SDS011;70693;48.680;8.890;2023-09-12T01:19:00;8.10;;;4.03;;
26303;SDS011;70693;48.680;8.890;2023-09-12T01:29:43;5.00;;;3.80;;
26303;SDS011;70693;48.680;8.890;2023-09-12T01:32:12;4.80;;;3.97;;
26303;SDS011;70693;48.680;8.890;2023-09-12T01:34:39;6.28;;;3.72;;
26303;SDS011;70693;48.680;8.890;2023-09-12T01:37:05;6.45;;;3.90;;
26303;SDS011;70693;48.680;8.890;2023-09-12T01:39:31;10.35;;;3.90;;
26303;SDS011;70693;48.680;8.890;2023-09-12T01:41:56;6.00;;;3.65;;
26303;SDS011;70693;48.680;8.890;2023-09-12T01:44:25;5.93;;;4.18;;
26303;SDS011;70693;48.680;8.890;2023-09-12T01:46:53;6.38;;;3.97;;
26303;SDS011;70693;48.680;8.890;2023-09-12T01:49:22;6.00;;;3.80;;
26303;SDS011;70693;48.680;8.890;2023-09-12T01:51:49;7.03;;;3.97;;
26303;SDS011;70693;48.680;8.890;2023-09-12T01:54:16;5.10;;;3.90;;
26303;SDS011;70693;48.680;8.890;2023-09-12T01:56:42;7.80;;;4.38;;
26303;SDS011;70693;48.680;8.890;2023-09-12T01:59:08;8.20;;;3.63;;
26303;SDS011;70693;48.680;8.890;2023-09-12T02:01:34;4.30;;;3.90;;
26303;SDS011;70693;48.680;8.890;2023-09-12T02:04:00;5.10;;;4.07;;
26303;SDS011;70693;48.680;8.890;2023-09-12T02:06:25;5.80;;;3.80;;
26303;SDS011;70693;48.680;8.890;2023-09-12T02:08:51;4.88;;;3.90;;
26303;SDS011;70693;48.680;8.890;2023-09-12T02:11:17;6.68;;;4.30;;
26303;SDS011;70693;48.680;8.890;2023-09-12T02:13:42;7.28;;;4.07;;
26303;SDS011;70693;48.680;8.890;2023-09-12T02:16:08;6.70;;;3.47;;
26303;SDS011;70693;48.680;8.890;2023-09-12T02:18:33;5.72;;;4.22;;
26303;SDS011;70693;48.680;8.890;2023-09-12T02:20:59;5.90;;;4.05;;
26303;SDS011;70693;48.680;8.890;2023-09-12T02:23:25;8.15;;;4.15;;
26303;SDS011;70693;48.680;8.890;2023-09-12T02:25:50;8.00;;;4.25;;
26303;SDS011;70693;48.680;8.890;2023-09-12T02:28:16;5.95;;;3.70;;
26303;SDS011;70693;48.680;8.890;2023-09-12T02:30:41;6.68;;;3.60;;
26303;SDS011;70693;48.680;8.890;2023-09-12T02:33:07;5.38;;;4.00;;
26303;SDS011;70693;48.680;8.890;2023-09-12T02:35:33;7.90;;;4.20;;
26303;SDS011;70693;48.680;8.890;2023-09-12T02:37:58;7.55;;;3.80;;
26303;SDS011;70693;48.680;8.890;2023-09-12T02:40:24;6.75;;;3.97;;
26303;SDS011;70693;48.680;8.890;2023-09-12T02:42:50;4.13;;;3.72;;
26303;SDS011;70693;48.680;8.890;2023-09-12T02:45:16;5.45;;;4.10;;
26303;SDS011;70693;48.680;8.890;2023-09-12T02:47:41;7.70;;;3.95;;
26303;SDS011;70693;48.680;8.890;2023-09-12T02:50:08;6.63;;;4.03;;
26303;SDS011;70693;48.680;8.890;2023-09-12T02:52:34;7.30;;;3.70;;
26303;SDS011;70693;48.680;8.890;2023-09-12T02:55:00;5.30;;;4.00;;
26303;SDS011;70693;48.680;8.890;2023-09-12T02:57:26;5.70;;;4.00;;
26303;SDS011;70693;48.680;8.890;2023-09-12T02:59:51;5.78;;;3.83;;
26303;SDS011;70693;48.680;8.890;2023-09-12T03:02:17;6.55;;;3.80;;
26303;SDS011;70693;48.680;8.890;2023-09-12T03:04:42;5.55;;;4.25;;
26303;SDS011;70693;48.680;8.890;2023-09-12T03:07:08;6.47;;;4.15;;
26303;SDS011;70693;48.680;8.890;2023-09-12T03:09:34;5.10;;;3.92;;
26303;SDS011;70693;48.680;8.890;2023-09-12T03:12:02;5.22;;;3.95;;
26303;SDS011;70693;48.680;8.890;2023-09-12T03:14:28;6.28;;;3.72;;
26303;SDS011;70693;48.680;8.890;2023-09-12T03:16:54;5.38;;;3.78;;
26303;SDS011;70693;48.680;8.890;2023-09-12T03:19:21;6.82;;;4.22;;
26303;SDS011;70693;48.680;8.890;2023-09-12T03:21:46;6.00;;;4.07;;
26303;SDS011;70693;48.680;8.890;2023-09-12T03:24:12;6.68;;;4.10;;
26303;SDS011;70693;48.680;8.890;2023-09-12T03:26:38;8.75;;;4.03;;
26303;SDS011;70693;48.680;8.890;2023-09-12T03:29:03;7.25;;;3.97;;
26303;SDS011;70693;48.680;8.890;2023-09-12T03:31:29;7.13;;;4.00;;
26303;SDS011;70693;48.680;8.890;2023-09-12T03:33:55;7.55;;;3.78;;
26303;SDS011;70693;48.680;8.890;2023-09-12T03:36:21;5.00;;;3.90;;
26303;SDS011;70693;48.680;8.890;2023-09-12T03:38:46;7.03;;;3.88;;
26303;SDS011;70693;48.680;8.890;2023-09-12T03:41:13;6.68;;;4.05;;
26303;SDS011;70693;48.680;8.890;2023-09-12T03:43:38;5.47;;;4.20;;
26303;SDS011;70693;48.680;8.890;2023-09-12T03:46:04;5.68;;;4.07;;
26303;SDS011;70693;48.680;8.890;2023-09-12T03:48:30;7.25;;;4.15;;
26303;SDS011;70693;48.680;8.890;2023-09-12T03:50:56;4.40;;;3.80;;
26303;SDS011;70693;48.680;8.890;2023-09-12T03:53:22;4.93;;;3.90;;
26303;SDS011;70693;48.680;8.890;2023-09-12T03:55:48;8.43;;;4.50;;
26303;SDS011;70693;48.680;8.890;2023-09-12T03:58:13;10.48;;;4.25;;
26303;SDS011;70693;48.680;8.890;2023-09-12T04:00:39;7.10;;;4.20;;
26303;SDS011;70693;48.680;8.890;2023-09-12T04:03:05;7.13;;;3.90;;
26303;SDS011;70693;48.680;8.890;2023-09-12T04:05:30;9.57;;;4.00;;
26303;SDS011;70693;48.680;8.890;2023-09-12T04:07:56;7.32;;;3.97;;
26303;SDS011;70693;48.680;8.890;2023-09-12T04:10:22;8.68;;;4.10;;
26303;SDS011;70693;48.680;8.890;2023-09-12T04:12:48;6.78;;;4.75;;
26303;SDS011;70693;48.680;8.890;2023-09-12T04:15:13;6.82;;;3.63;;
26303;SDS011;70693;48.680;8.890;2023-09-12T04:17:39;6.38;;;4.10;;
26303;SDS011;70693;48.680;8.890;2023-09-12T04:20:05;9.43;;;3.70;;
26303;SDS011;70693;48.680;8.890;2023-09-12T04:22:31;6.90;;;4.00;;
26303;SDS011;70693;48.680;8.890;2023-09-12T04:24:57;5.53;;;4.00;;
26303;SDS011;70693;48.680;8.890;2023-09-12T04:27:23;7.00;;;3.75;;
26303;SDS011;70693;48.680;8.890;2023-09-12T04:29:48;7.00;;;3.95;;
26303;SDS011;70693;48.680;8.890;2023-09-12T04:32:14;6.30;;;3.72;;
26303;SDS011;70693;48.680;8.890;2023-09-12T04:34:44;8.32;;;4.20;;
26303;SDS011;70693;48.680;8.890;2023-09-12T04:37:09;4.55;;;3.55;;
26303;SDS011;70693;48.680;8.890;2023-09-12T04:39:35;7.97;;;4.35;;
26303;SDS011;70693;48.680;8.890;2023-09-12T04:42:00;6.15;;;4.13;;
26303;SDS011;70693;48.680;8.890;2023-09-12T04:44:26;6.60;;;4.07;;
26303;SDS011;70693;48.680;8.890;2023-09-12T04:46:52;6.70;;;4.07;;
26303;SDS011;70693;48.680;8.890;2023-09-12T04:49:17;8.07;;;3.70;;
26303;SDS011;70693;48.680;8.890;2023-09-12T04:51:43;5.00;;;4.03;;
26303;SDS011;70693;48.680;8.890;2023-09-12T04:54:08;7.43;;;3.97;;
26303;SDS011;70693;48.680;8.890;2023-09-12T04:56:34;7.70;;;4.00;;
26303;SDS011;70693;48.680;8.890;2023-09-12T04:59:00;6.85;;;4.72;;
26303;SDS011;70693;48.680;8.890;2023-09-12T05:01:25;8.85;;;4.25;;
26303;SDS011;70693;48.680;8.890;2023-09-12T05:03:51;6.57;;;3.70;;
26303;SDS011;70693;48.680;8.890;2023-09-12T05:06:17;5.03;;;3.90;;
26303;SDS011;70693;48.680;8.890;2023-09-12T05:08:42;7.25;;;3.40;;
26303;SDS011;70693;48.680;8.890;2023-09-12T05:11:08;6.38;;;3.80;;
26303;SDS011;70693;48.680;8.890;2023-09-12T05:13:34;7.85;;;4.65;;
26303;SDS011;70693;48.680;8.890;2023-09-12T05:15:59;5.18;;;3.63;;
26303;SDS011;70693;48.680;8.890;2023-09-12T05:18:26;5.72;;;4.00;;
26303;SDS011;70693;48.680;8.890;2023-09-12T05:20:52;9.38;;;4.32;;
26303;SDS011;70693;48.680;8.890;2023-09-12T05:23:17;6.38;;;4.13;;
26303;SDS011;70693;48.680;8.890;2023-09-12T05:25:43;8.18;;;4.18;;
26303;SDS011;70693;48.680;8.890;2023-09-12T05:28:08;7.03;;;4.30;;
26303;SDS011;70693;48.680;8.890;2023-09-12T05:30:34;9.00;;;4.57;;
26303;SDS011;70693;48.680;8.890;2023-09-12T05:33:00;8.10;;;4.38;;
26303;SDS011;70693;48.680;8.890;2023-09-12T05:35:26;8.70;;;4.43;;
26303;SDS011;70693;48.680;8.890;2023-09-12T05:37:52;9.32;;;4.03;;
26303;SDS011;70693;48.680;8.890;2023-09-12T05:40:18;6.03;;;4.50;;
26303;SDS011;70693;48.680;8.890;2023-09-12T05:42:44;8.65;;;4.38;;
26303;SDS011;70693;48.680;8.890;2023-09-12T05:45:09;7.53;;;4.20;;
26303;SDS011;70693;48.680;8.890;2023-09-12T05:47:35;6.25;;;4.40;;
26303;SDS011;70693;48.680;8.890;2023-09-12T05:50:01;6.78;;;4.40;;
26303;SDS011;70693;48.680;8.890;2023-09-12T05:52:30;4.32;;;3.80;;
26303;SDS011;70693;48.680;8.890;2023-09-12T05:54:56;3.97;;;3.58;;
26303;SDS011;70693;48.680;8.890;2023-09-12T05:57:21;6.97;;;4.47;;
26303;SDS011;70693;48.680;8.890;2023-09-12T05:59:47;7.15;;;4.20;;
26303;SDS011;70693;48.680;8.890;2023-09-12T06:02:13;5.65;;;3.85;;
26303;SDS011;70693;48.680;8.890;2023-09-12T06:04:38;6.50;;;4.38;;
26303;SDS011;70693;48.680;8.890;2023-09-12T06:07:04;9.10;;;4.53;;
26303;SDS011;70693;48.680;8.890;2023-09-12T06:09:30;5.93;;;4.43;;
26303;SDS011;70693;48.680;8.890;2023-09-12T06:11:56;5.80;;;4.22;;
26303;SDS011;70693;48.680;8.890;2023-09-12T06:14:21;9.95;;;4.00;;
26303;SDS011;70693;48.680;8.890;2023-09-12T06:16:47;6.28;;;4.32;;
26303;SDS011;70693;48.680;8.890;2023-09-12T06:19:13;5.63;;;3.88;;
26303;SDS011;70693;48.680;8.890;2023-09-12T06:21:39;8.45;;;4.68;;
26303;SDS011;70693;48.680;8.890;2023-09-12T06:24:12;5.97;;;4.07;;
26303;SDS011;70693;48.680;8.890;2023-09-12T06:30:01;5.13;;;3.70;;
26303;SDS011;70693;48.680;8.890;2023-09-12T06:35:49;5.88;;;4.13;;
26303;SDS011;70693;48.680;8.890;2023-09-12T06:38:16;5.40;;;3.97;;
26303;SDS011;70693;48.680;8.890;2023-09-12T06:40:42;5.05;;;4.03;;
26303;SDS011;70693;48.680;8.890;2023-09-12T06:43:08;4.47;;;4.00;;
26303;SDS011;70693;48.680;8.890;2023-09-12T06:45:34;7.15;;;4.22;;
26303;SDS011;70693;48.680;8.890;2023-09-12T06:48:02;5.80;;;4.25;;
26303;SDS011;70693;48.680;8.890;2023-09-12T06:50:28;7.40;;;4.13;;
26303;SDS011;70693;48.680;8.890;2023-09-12T06:52:54;4.97;;;4.30;;
26303;SDS011;70693;48.680;8.890;2023-09-12T06:55:20;9.40;;;3.95;;
26303;SDS011;70693;48.680;8.890;2023-09-12T06:57:45;6.07;;;4.13;;
26303;SDS011;70693;48.680;8.890;2023-09-12T07:00:11;7.32;;;4.03;;
26303;SDS011;70693;48.680;8.890;2023-09-12T07:02:38;10.18;;;4.07;;
26303;SDS011;70693;48.680;8.890;2023-09-12T07:05:05;5.95;;;3.72;;
26303;SDS011;70693;48.680;8.890;2023-09-12T07:07:32;4.45;;;3.67;;
26303;SDS011;70693;48.680;8.890;2023-09-12T07:09:58;4.63;;;3.70;;
26303;SDS011;70693;48.680;8.890;2023-09-12T07:12:24;5.40;;;4.03;;
26303;SDS011;70693;48.680;8.890;2023-09-12T07:14:51;8.57;;;3.70;;
26303;SDS011;70693;48.680;8.890;2023-09-12T07:17:17;6.55;;;3.72;;
26303;SDS011;70693;48.680;8.890;2023-09-12T07:19:43;5.13;;;3.85;;
26303;SDS011;70693;48.680;8.890;2023-09-12T07:22:09;3.90;;;3.22;;
26303;SDS011;70693;48.680;8.890;2023-09-12T07:24:35;4.70;;;3.60;;
26303;SDS011;70693;48.680;8.890;2023-09-12T07:27:00;4.10;;;3.50;;
26303;SDS011;70693;48.680;8.890;2023-09-12T07:29:26;5.22;;;3.83;;
26303;SDS011;70693;48.680;8.890;2023-09-12T07:31:52;4.75;;;3.50;;
26303;SDS011;70693;48.680;8.890;2023-09-12T07:34:19;6.32;;;3.40;;
26303;SDS011;70693;48.680;8.890;2023-09-12T07:36:46;4.80;;;3.72;;
26303;SDS011;70693;48.680;8.890;2023-09-12T07:39:11;5.18;;;3.45;;
26303;SDS011;70693;48.680;8.890;2023-09-12T07:41:38;6.65;;;3.45;;
26303;SDS011;70693;48.680;8.890;2023-09-12T07:44:03;5.72;;;3.35;;
26303;SDS011;70693;48.680;8.890;2023-09-12T07:46:30;4.10;;;3.53;;
26303;SDS011;70693;48.680;8.890;2023-09-12T07:48:56;3.92;;;3.50;;
26303;SDS011;70693;48.680;8.890;2023-09-12T07:51:23;5.00;;;3.20;;
26303;SDS011;70693;48.680;8.890;2023-09-12T07:53:49;6.13;;;3.75;;
26303;SDS011;70693;48.680;8.890;2023-09-12T07:56:15;4.53;;;3.28;;
26303;SDS011;70693;48.680;8.890;2023-09-12T07:58:40;3.92;;;3.53;;
26303;SDS011;70693;48.680;8.890;2023-09-12T08:01:09;4.28;;;3.60;;
26303;SDS011;70693;48.680;8.890;2023-09-12T08:03:35;4.53;;;3.67;;
26303;SDS011;70693;48.680;8.890;2023-09-12T08:06:02;6.90;;;3.75;;
26303;SDS011;70693;48.680;8.890;2023-09-12T08:08:28;4.82;;;3.50;;
26303;SDS011;70693;48.680;8.890;2023-09-12T08:10:57;4.05;;;3.65;;
26303;SDS011;70693;48.680;8.890;2023-09-12T08:13:26;4.13;;;3.45;;
26303;SDS011;70693;48.680;8.890;2023-09-12T08:15:53;3.97;;;3.40;;
26303;SDS011;70693;48.680;8.890;2023-09-12T08:18:19;5.00;;;3.30;;
26303;SDS011;70693;48.680;8.890;2023-09-12T08:20:44;4.32;;;3.40;;
26303;SDS011;70693;48.680;8.890;2023-09-12T08:23:10;4.07;;;3.47;;
26303;SDS011;70693;48.680;8.890;2023-09-12T08:25:36;4.18;;;3.40;;
26303;SDS011;70693;48.680;8.890;2023-09-12T08:28:01;3.78;;;3.38;;
26303;SDS011;70693;48.680;8.890;2023-09-12T08:30:27;3.90;;;3.47;;
26303;SDS011;70693;48.680;8.890;2023-09-12T08:32:54;4.68;;;3.38;;
26303;SDS011;70693;48.680;8.890;2023-09-12T08:35:21;4.82;;;3.55;;
26303;SDS011;70693;48.680;8.890;2023-09-12T08:37:46;4.63;;;3.40;;
26303;SDS011;70693;48.680;8.890;2023-09-12T08:40:12;3.80;;;3.20;;
26303;SDS011;70693;48.680;8.890;2023-09-12T08:42:39;4.18;;;3.40;;
26303;SDS011;70693;48.680;8.890;2023-09-12T08:45:13;4.00;;;3.10;;
26303;SDS011;70693;48.680;8.890;2023-09-12T08:47:42;6.70;;;3.92;;
26303;SDS011;70693;48.680;8.890;2023-09-12T08:50:10;3.58;;;3.25;;
26303;SDS011;70693;48.680;8.890;2023-09-12T08:52:37;4.00;;;3.40;;
26303;SDS011;70693;48.680;8.890;2023-09-12T08:55:02;5.10;;;3.42;;
26303;SDS011;70693;48.680;8.890;2023-09-12T08:57:29;4.22;;;3.40;;
26303;SDS011;70693;48.680;8.890;2023-09-12T08:59:57;6.72;;;3.40;;
26303;SDS011;70693;48.680;8.890;2023-09-12T09:02:29;3.42;;;3.10;;
26303;SDS011;70693;48.680;8.890;2023-09-12T09:04:55;5.05;;;3.42;;
26303;SDS011;70693;48.680;8.890;2023-09-12T09:07:22;4.40;;;3.30;;
26303;SDS011;70693;48.680;8.890;2023-09-12T09:09:47;3.40;;;3.10;;
26303;SDS011;70693;48.680;8.890;2023-09-12T09:12:16;3.58;;;2.70;;
26303;SDS011;70693;48.680;8.890;2023-09-12T09:14:42;4.03;;;3.25;;
26303;SDS011;70693;48.680;8.890;2023-09-12T09:17:07;3.75;;;3.42;;
26303;SDS011;70693;48.680;8.890;2023-09-12T09:19:42;4.90;;;3.60;;
26303;SDS011;70693;48.680;8.890;2023-09-12T09:22:08;4.03;;;3.38;;
26303;SDS011;70693;48.680;8.890;2023-09-12T09:24:34;3.85;;;3.40;;
26303;SDS011;70693;48.680;8.890;2023-09-12T09:27:00;5.07;;;3.20;;
26303;SDS011;70693;48.680;8.890;2023-09-12T09:29:26;4.35;;;3.33;;
26303;SDS011;70693;48.680;8.890;2023-09-12T09:31:58;3.58;;;3.17;;
26303;SDS011;70693;48.680;8.890;2023-09-12T09:34:26;5.60;;;3.28;;
26303;SDS011;70693;48.680;8.890;2023-09-12T09:36:54;4.03;;;3.10;;
26303;SDS011;70693;48.680;8.890;2023-09-12T09:39:25;4.82;;;3.10;;
26303;SDS011;70693;48.680;8.890;2023-09-12T09:41:54;5.15;;;3.33;;
26303;SDS011;70693;48.680;8.890;2023-09-12T09:44:22;4.28;;;3.42;;
26303;SDS011;70693;48.680;8.890;2023-09-12T09:46:52;3.95;;;3.05;;
26303;SDS011;70693;48.680;8.890;2023-09-12T09:49:27;5.93;;;3.38;;
26303;SDS011;70693;48.680;8.890;2023-09-12T09:51:55;3.55;;;2.92;;
26303;SDS011;70693;48.680;8.890;2023-09-12T09:54:23;6.32;;;3.30;;
26303;SDS011;70693;48.680;8.890;2023-09-12T09:56:53;4.45;;;3.25;;
26303;SDS011;70693;48.680;8.890;2023-09-12T09:59:23;5.55;;;3.70;;
26303;SDS011;70693;48.680;8.890;2023-09-12T10:01:50;3.15;;;2.85;;
26303;SDS011;70693;48.680;8.890;2023-09-12T10:04:25;4.03;;;3.15;;
26303;SDS011;70693;48.680;8.890;2023-09-12T10:06:52;4.10;;;3.55;;
26303;SDS011;70693;48.680;8.890;2023-09-12T10:09:25;3.90;;;3.30;;
26303;SDS011;70693;48.680;8.890;2023-09-12T10:11:51;4.15;;;3.50;;
26303;SDS011;70693;48.680;8.890;2023-09-12T10:14:20;4.13;;;2.85;;
26303;SDS011;70693;48.680;8.890;2023-09-12T10:16:47;4.07;;;3.40;;
26303;SDS011;70693;48.680;8.890;2023-09-12T10:19:22;5.22;;;3.05;;
26303;SDS011;70693;48.680;8.890;2023-09-12T10:24:48;4.63;;;3.42;;
26303;SDS011;70693;48.680;8.890;2023-09-12T10:27:15;4.20;;;3.10;;
26303;SDS011;70693;48.680;8.890;2023-09-12T10:29:43;4.35;;;3.30;;
26303;SDS011;70693;48.680;8.890;2023-09-12T10:32:12;4.65;;;3.42;;
26303;SDS011;70693;48.680;8.890;2023-09-12T10:34:39;3.20;;;2.70;;
26303;SDS011;70693;48.680;8.890;2023-09-12T10:37:10;3.90;;;3.10;;
26303;SDS011;70693;48.680;8.890;2023-09-12T10:39:40;4.25;;;3.03;;
26303;SDS011;70693;48.680;8.890;2023-09-12T10:42:07;4.50;;;3.22;;
26303;SDS011;70693;48.680;8.890;2023-09-12T10:44:34;3.47;;;3.15;;
26303;SDS011;70693;48.680;8.890;2023-09-12T10:47:00;3.30;;;3.00;;
26303;SDS011;70693;48.680;8.890;2023-09-12T10:49:26;4.15;;;3.42;;
26303;SDS011;70693;48.680;8.890;2023-09-12T10:51:53;4.28;;;3.47;;
26303;SDS011;70693;48.680;8.890;2023-09-12T10:54:25;4.00;;;3.35;;
26303;SDS011;70693;48.680;8.890;2023-09-12T10:57:07;3.95;;;3.08;;
26303;SDS011;70693;48.680;8.890;2023-09-12T10:59:36;4.68;;;3.28;;
26303;SDS011;70693;48.680;8.890;2023-09-12T11:04:57;10.23;;;5.15;;
26303;SDS011;70693;48.680;8.890;2023-09-12T11:07:30;12.75;;;5.78;;
26303;SDS011;70693;48.680;8.890;2023-09-12T11:10:15;11.32;;;6.03;;
26303;SDS011;70693;48.680;8.890;2023-09-12T11:12:45;15.85;;;5.93;;
26303;SDS011;70693;48.680;8.890;2023-09-12T11:15:16;10.32;;;6.00;;
26303;SDS011;70693;48.680;8.890;2023-09-12T11:17:43;9.90;;;5.68;;
26303;SDS011;70693;48.680;8.890;2023-09-12T11:20:10;14.23;;;5.93;;
26303;SDS011;70693;48.680;8.890;2023-09-12T11:22:38;10.15;;;5.55;;
26303;SDS011;70693;48.680;8.890;2023-09-12T11:25:20;8.10;;;5.47;;
26303;SDS011;70693;48.680;8.890;2023-09-12T11:30:22;11.32;;;5.18;;
26303;SDS011;70693;48.680;8.890;2023-09-12T11:32:51;10.90;;;5.05;;
26303;SDS011;70693;48.680;8.890;2023-09-12T11:35:22;13.25;;;5.40;;
26303;SDS011;70693;48.680;8.890;2023-09-12T11:37:50;12.20;;;5.25;;
26303;SDS011;70693;48.680;8.890;2023-09-12T11:40:17;10.35;;;6.00;;
26303;SDS011;70693;48.680;8.890;2023-09-12T11:42:47;8.98;;;5.70;;
26303;SDS011;70693;48.680;8.890;2023-09-12T11:45:14;8.45;;;5.90;;
26303;SDS011;70693;48.680;8.890;2023-09-12T11:47:44;7.22;;;5.13;;
26303;SDS011;70693;48.680;8.890;2023-09-12T11:50:27;9.10;;;5.80;;
26303;SDS011;70693;48.680;8.890;2023-09-12T11:53:03;9.68;;;5.47;;
26303;SDS011;70693;48.680;8.890;2023-09-12T11:55:30;8.02;;;5.35;;
26303;SDS011;70693;48.680;8.890;2023-09-12T11:57:57;7.25;;;5.60;;
26303;SDS011;70693;48.680;8.890;2023-09-12T12:00:23;8.18;;;5.43;;
26303;SDS011;70693;48.680;8.890;2023-09-12T12:02:51;7.15;;;5.70;;
26303;SDS011;70693;48.680;8.890;2023-09-12T12:05:17;8.00;;;5.22;;
26303;SDS011;70693;48.680;8.890;2023-09-12T12:07:43;7.45;;;5.35;;
26303;SDS011;70693;48.680;8.890;2023-09-12T12:10:11;8.45;;;5.38;;
26303;SDS011;70693;48.680;8.890;2023-09-12T12:12:38;8.07;;;5.10;;
26303;SDS011;70693;48.680;8.890;2023-09-12T12:15:04;6.88;;;5.40;;
26303;SDS011;70693;48.680;8.890;2023-09-12T12:17:36;5.82;;;4.95;;
26303;SDS011;70693;48.680;8.890;2023-09-12T12:20:06;5.88;;;4.90;;
26303;SDS011;70693;48.680;8.890;2023-09-12T12:22:35;6.75;;;5.03;;
26303;SDS011;70693;48.680;8.890;2023-09-12T12:25:05;9.32;;;5.53;;
26303;SDS011;70693;48.680;8.890;2023-09-12T12:27:32;7.13;;;4.93;;
26303;SDS011;70693;48.680;8.890;2023-09-12T12:30:00;7.45;;;4.72;;
26303;SDS011;70693;48.680;8.890;2023-09-12T12:32:25;6.07;;;4.90;;
26303;SDS011;70693;48.680;8.890;2023-09-12T12:34:51;6.25;;;4.80;;
26303;SDS011;70693;48.680;8.890;2023-09-12T12:37:17;6.43;;;4.93;;
26303;SDS011;70693;48.680;8.890;2023-09-12T12:39:43;6.03;;;4.90;;
26303;SDS011;70693;48.680;8.890;2023-09-12T12:42:08;7.18;;;4.63;;
26303;SDS011;70693;48.680;8.890;2023-09-12T12:44:34;8.80;;;4.90;;
26303;SDS011;70693;48.680;8.890;2023-09-12T12:47:03;7.00;;;4.28;;
26303;SDS011;70693;48.680;8.890;2023-09-12T12:49:39;6.05;;;5.13;;
26303;SDS011;70693;48.680;8.890;2023-09-12T12:52:05;5.72;;;4.70;;
26303;SDS011;70693;48.680;8.890;2023-09-12T12:54:31;6.60;;;4.40;;
26303;SDS011;70693;48.680;8.890;2023-09-12T12:56:59;5.00;;;4.50;;
26303;SDS011;70693;48.680;8.890;2023-09-12T12:59:25;8.65;;;4.70;;
26303;SDS011;70693;48.680;8.890;2023-09-12T13:01:51;6.25;;;4.85;;
26303;SDS011;70693;48.680;8.890;2023-09-12T13:04:16;7.45;;;4.70;;
26303;SDS011;70693;48.680;8.890;2023-09-12T13:06:42;4.78;;;4.28;;
26303;SDS011;70693;48.680;8.890;2023-09-12T13:09:07;6.53;;;5.00;;
26303;SDS011;70693;48.680;8.890;2023-09-12T13:11:34;5.28;;;4.47;;
26303;SDS011;70693;48.680;8.890;2023-09-12T13:14:00;6.45;;;4.55;;
26303;SDS011;70693;48.680;8.890;2023-09-12T13:16:26;6.03;;;4.38;;
26303;SDS011;70693;48.680;8.890;2023-09-12T13:18:53;9.48;;;4.72;;
26303;SDS011;70693;48.680;8.890;2023-09-12T13:21:18;9.48;;;4.55;;
26303;SDS011;70693;48.680;8.890;2023-09-12T13:23:44;6.72;;;4.35;;
26303;SDS011;70693;48.680;8.890;2023-09-12T13:26:11;9.48;;;5.20;;
26303;SDS011;70693;48.680;8.890;2023-09-12T13:28:37;5.28;;;4.75;;
26303;SDS011;70693;48.680;8.890;2023-09-12T13:31:03;5.47;;;4.35;;
26303;SDS011;70693;48.680;8.890;2023-09-12T13:33:29;7.68;;;4.85;;
26303;SDS011;70693;48.680;8.890;2023-09-12T13:35:54;6.60;;;4.40;;
26303;SDS011;70693;48.680;8.890;2023-09-12T13:38:20;6.13;;;4.70;;
26303;SDS011;70693;48.680;8.890;2023-09-12T13:40:47;5.78;;;4.45;;
26303;SDS011;70693;48.680;8.890;2023-09-12T13:43:13;7.25;;;4.43;;
26303;SDS011;70693;48.680;8.890;2023-09-12T13:45:39;6.90;;;4.28;;
26303;SDS011;70693;48.680;8.890;2023-09-12T13:48:05;8.00;;;4.30;;
26303;SDS011;70693;48.680;8.890;2023-09-12T13:50:31;7.18;;;4.38;;
26303;SDS011;70693;48.680;8.890;2023-09-12T13:52:58;8.93;;;4.47;;
26303;SDS011;70693;48.680;8.890;2023-09-12T13:55:24;6.13;;;4.70;;
26303;SDS011;70693;48.680;8.890;2023-09-12T13:57:50;4.20;;;3.80;;
26303;SDS011;70693;48.680;8.890;2023-09-12T14:00:16;5.30;;;4.18;;
26303;SDS011;70693;48.680;8.890;2023-09-12T14:02:42;6.55;;;4.70;;
26303;SDS011;70693;48.680;8.890;2023-09-12T14:05:09;6.25;;;4.25;;
26303;SDS011;70693;48.680;8.890;2023-09-12T14:07:36;7.13;;;4.55;;
26303;SDS011;70693;48.680;8.890;2023-09-12T14:10:03;4.43;;;3.60;;
26303;SDS011;70693;48.680;8.890;2023-09-12T14:12:29;6.63;;;4.25;;
26303;SDS011;70693;48.680;8.890;2023-09-12T14:14:54;6.00;;;4.47;;
26303;SDS011;70693;48.680;8.890;2023-09-12T14:17:20;5.13;;;4.32;;
26303;SDS011;70693;48.680;8.890;2023-09-12T14:19:45;7.40;;;4.53;;
26303;SDS011;70693;48.680;8.890;2023-09-12T14:22:11;6.72;;;4.55;;
26303;SDS011;70693;48.680;8.890;2023-09-12T14:24:37;6.40;;;4.20;;
26303;SDS011;70693;48.680;8.890;2023-09-12T14:27:02;5.32;;;4.30;;
26303;SDS011;70693;48.680;8.890;2023-09-12T14:29:29;5.40;;;4.20;;
26303;SDS011;70693;48.680;8.890;2023-09-12T14:31:55;4.80;;;3.90;;
26303;SDS011;70693;48.680;8.890;2023-09-12T14:34:24;5.60;;;4.18;;
26303;SDS011;70693;48.680;8.890;2023-09-12T14:36:54;6.03;;;4.50;;
26303;SDS011;70693;48.680;8.890;2023-09-12T14:39:21;7.05;;;4.22;;
26303;SDS011;70693;48.680;8.890;2023-09-12T14:41:47;4.40;;;4.00;;
26303;SDS011;70693;48.680;8.890;2023-09-12T14:44:17;7.93;;;4.43;;
26303;SDS011;70693;48.680;8.890;2023-09-12T14:46:43;5.38;;;4.15;;
26303;SDS011;70693;48.680;8.890;2023-09-12T14:49:09;6.65;;;4.65;;
26303;SDS011;70693;48.680;8.890;2023-09-12T14:51:35;16.85;;;5.55;;
26303;SDS011;70693;48.680;8.890;2023-09-12T14:54:04;13.88;;;5.63;;
26303;SDS011;70693;48.680;8.890;2023-09-12T14:56:31;9.93;;;5.60;;
26303;SDS011;70693;48.680;8.890;2023-09-12T14:58:58;12.68;;;6.20;;
26303;SDS011;70693;48.680;8.890;2023-09-12T15:01:24;11.15;;;6.35;;
26303;SDS011;70693;48.680;8.890;2023-09-12T15:03:50;11.32;;;6.35;;
26303;SDS011;70693;48.680;8.890;2023-09-12T15:06:16;10.57;;;6.38;;
26303;SDS011;70693;48.680;8.890;2023-09-12T15:08:42;9.13;;;6.32;;